sensor_id;sensor_type;location;lat;lon;timestamp;pressure;altitude;pressure_sealevel;temperature;humidity
25869;BME280;13688;53.154;18.136;2023-02-10T00:00:35;102247.52;;;-2.99;68.32
25869;BME280;13688;53.154;18.136;2023-02-10T00:06:00;102250.15;;;-3.02;68.62
25869;BME280;13688;53.154;18.136;2023-02-10T00:11:25;102254.51;;;-3.17;68.82
25869;BME280;13688;53.154;18.136;2023-02-10T00:17:05;102245.77;;;-3.05;69.17
25869;BME280;13688;53.154;18.136;2023-02-10T00:22:28;102241.40;;;-2.91;68.89
25869;BME280;13688;53.154;18.136;2023-02-10T00:27:51;102243.16;;;-2.93;68.48
25869;BME280;13688;53.154;18.136;2023-02-10T00:33:13;102249.30;;;-2.97;68.39
25869;BME280;13688;53.154;18.136;2023-02-10T00:38:35;102236.16;;;-2.89;68.46
25869;BME280;13688;53.154;18.136;2023-02-10T00:43:58;102238.77;;;-2.97;68.41
25869;BME280;13688;53.154;18.136;2023-02-10T00:49:20;102242.26;;;-3.05;68.57
25869;BME280;13688;53.154;18.136;2023-02-10T00:54:42;102241.34;;;-3.09;68.89
25869;BME280;13688;53.154;18.136;2023-02-10T01:00:06;102237.00;;;-3.05;69.24
25869;BME280;13688;53.154;18.136;2023-02-10T01:05:29;102230.86;;;-3.07;69.37
25869;BME280;13688;53.154;18.136;2023-02-10T01:11:02;102236.97;;;-3.13;69.54
25869;BME280;13688;53.154;18.136;2023-02-10T01:16:26;102241.32;;;-3.21;69.78
25869;BME280;13688;53.154;18.136;2023-02-10T01:21:49;102248.34;;;-3.23;70.11
25869;BME280;13688;53.154;18.136;2023-02-10T01:27:11;102246.61;;;-3.15;70.52
25869;BME280;13688;53.154;18.136;2023-02-10T01:32:33;102252.78;;;-2.99;70.60
25869;BME280;13688;53.154;18.136;2023-02-10T01:37:56;102249.32;;;-2.86;70.44
25869;BME280;13688;53.154;18.136;2023-02-10T01:43:22;102237.92;;;-2.73;70.12
25869;BME280;13688;53.154;18.136;2023-02-10T01:48:44;102244.08;;;-2.66;69.79
25869;BME280;13688;53.154;18.136;2023-02-10T01:54:08;102242.34;;;-2.56;69.61
25869;BME280;13688;53.154;18.136;2023-02-10T01:59:36;102251.98;;;-2.52;69.33
25869;BME280;13688;53.154;18.136;2023-02-10T02:05:02;102241.48;;;-2.51;69.36
25869;BME280;13688;53.154;18.136;2023-02-10T02:11:08;102245.85;;;-2.36;70.22
25869;BME280;13688;53.154;18.136;2023-02-10T02:22:34;102263.40;;;-2.43;69.81
25869;BME280;13688;53.154;18.136;2023-02-10T02:34:16;102263.42;;;-2.40;70.20
25869;BME280;13688;53.154;18.136;2023-02-10T02:39:50;102281.86;;;-2.37;70.47
25869;BME280;13688;53.154;18.136;2023-02-10T02:45:37;102267.80;;;-2.36;70.69
25869;BME280;13688;53.154;18.136;2023-02-10T02:51:36;102260.80;;;-2.31;70.91
25869;BME280;13688;53.154;18.136;2023-02-10T02:56:58;102259.89;;;-2.25;71.02
25869;BME280;13688;53.154;18.136;2023-02-10T03:02:26;102236.20;;;-2.22;71.30
25869;BME280;13688;53.154;18.136;2023-02-10T03:07:51;102251.99;;;-2.17;71.51
25869;BME280;13688;53.154;18.136;2023-02-10T03:13:13;102252.88;;;-2.12;71.77
25869;BME280;13688;53.154;18.136;2023-02-10T03:18:35;102246.72;;;-2.08;71.90
25869;BME280;13688;53.154;18.136;2023-02-10T03:24:00;102222.12;;;-2.10;72.06
25869;BME280;13688;53.154;18.136;2023-02-10T03:29:23;102219.50;;;-2.25;72.30
25869;BME280;13688;53.154;18.136;2023-02-10T03:34:46;102227.41;;;-2.27;72.78
25869;BME280;13688;53.154;18.136;2023-02-10T03:40:09;102244.97;;;-2.34;73.23
25869;BME280;13688;53.154;18.136;2023-02-10T03:45:32;102235.33;;;-2.32;73.72
25869;BME280;13688;53.154;18.136;2023-02-10T03:50:55;102236.19;;;-2.36;74.06
25869;BME280;13688;53.154;18.136;2023-02-10T03:56:20;102232.67;;;-2.35;74.54
25869;BME280;13688;53.154;18.136;2023-02-10T04:01:42;102227.41;;;-2.44;74.84
25869;BME280;13688;53.154;18.136;2023-02-10T04:07:04;102233.57;;;-2.39;75.32
25869;BME280;13688;53.154;18.136;2023-02-10T04:12:27;102234.42;;;-2.43;75.68
25869;BME280;13688;53.154;18.136;2023-02-10T04:17:49;102236.18;;;-2.42;75.98
25869;BME280;13688;53.154;18.136;2023-02-10T04:23:11;102244.98;;;-2.40;76.27
25869;BME280;13688;53.154;18.136;2023-02-10T04:28:34;102237.06;;;-2.43;76.56
25869;BME280;13688;53.154;18.136;2023-02-10T04:33:56;102223.91;;;-2.38;77.01
25869;BME280;13688;53.154;18.136;2023-02-10T04:39:19;102227.41;;;-2.33;77.37
25869;BME280;13688;53.154;18.136;2023-02-10T04:44:41;102242.32;;;-2.23;77.64
25869;BME280;13688;53.154;18.136;2023-02-10T04:50:04;102241.45;;;-2.25;77.68
25869;BME280;13688;53.154;18.136;2023-02-10T04:55:26;102239.68;;;-2.14;77.82
25869;BME280;13688;53.154;18.136;2023-02-10T05:00:49;102251.12;;;-2.10;77.81
25869;BME280;13688;53.154;18.136;2023-02-10T05:06:14;102241.44;;;-2.07;77.91
25869;BME280;13688;53.154;18.136;2023-02-10T05:11:36;102253.72;;;-1.96;78.10
25869;BME280;13688;53.154;18.136;2023-02-10T05:16:58;102264.25;;;-1.93;78.16
25869;BME280;13688;53.154;18.136;2023-02-10T05:22:21;102247.55;;;-1.86;78.22
25869;BME280;13688;53.154;18.136;2023-02-10T05:27:44;102245.78;;;-1.80;78.18
25869;BME280;13688;53.154;18.136;2023-02-10T05:33:06;102255.44;;;-1.71;78.10
25869;BME280;13688;53.154;18.136;2023-02-10T05:38:28;102258.91;;;-1.64;78.01
25869;BME280;13688;53.154;18.136;2023-02-10T05:43:52;102257.13;;;-1.56;77.93
25869;BME280;13688;53.154;18.136;2023-02-10T05:49:14;102278.25;;;-1.53;77.88
25869;BME280;13688;53.154;18.136;2023-02-10T05:54:37;102294.08;;;-1.53;77.90
25869;BME280;13688;53.154;18.136;2023-02-10T05:59:59;102286.98;;;-1.45;78.09
25869;BME280;13688;53.154;18.136;2023-02-10T06:05:22;102289.61;;;-1.37;78.12
25869;BME280;13688;53.154;18.136;2023-02-10T06:10:45;102291.32;;;-1.26;78.14
25869;BME280;13688;53.154;18.136;2023-02-10T06:16:08;102293.06;;;-1.14;78.09
25869;BME280;13688;53.154;18.136;2023-02-10T06:21:30;102301.80;;;-1.07;77.97
25869;BME280;13688;53.154;18.136;2023-02-10T06:26:52;102298.27;;;-1.06;77.89
25869;BME280;13688;53.154;18.136;2023-02-10T06:32:15;102306.20;;;-1.03;77.92
25869;BME280;13688;53.154;18.136;2023-02-10T06:37:37;102307.03;;;-0.97;77.98
25869;BME280;13688;53.154;18.136;2023-02-10T06:42:59;102299.08;;;-0.89;78.07
25869;BME280;13688;53.154;18.136;2023-02-10T06:48:22;102323.71;;;-0.84;78.06
25869;BME280;13688;53.154;18.136;2023-02-10T06:53:44;102325.47;;;-0.83;78.03
25869;BME280;13688;53.154;18.136;2023-02-10T06:59:06;102320.16;;;-0.80;78.07
25869;BME280;13688;53.154;18.136;2023-02-10T07:04:30;102317.52;;;-0.80;78.18
25869;BME280;13688;53.154;18.136;2023-02-10T07:09:53;102328.96;;;-0.76;78.33
25869;BME280;13688;53.154;18.136;2023-02-10T07:15:15;102335.11;;;-0.74;78.35
25869;BME280;13688;53.154;18.136;2023-02-10T07:20:38;102330.67;;;-0.66;78.43
25869;BME280;13688;53.154;18.136;2023-02-10T07:26:00;102326.23;;;-0.63;78.58
25869;BME280;13688;53.154;18.136;2023-02-10T07:31:24;102325.33;;;-0.57;78.79
25869;BME280;13688;53.154;18.136;2023-02-10T07:36:47;102348.16;;;-0.50;78.89
25869;BME280;13688;53.154;18.136;2023-02-10T07:42:09;102349.00;;;-0.42;78.98
25869;BME280;13688;53.154;18.136;2023-02-10T07:47:32;102353.31;;;-0.30;79.07
25869;BME280;13688;53.154;18.136;2023-02-10T07:52:54;102354.14;;;-0.22;79.12
25869;BME280;13688;53.154;18.136;2023-02-10T07:58:17;102345.31;;;-0.16;79.14
25869;BME280;13688;53.154;18.136;2023-02-10T08:03:39;102369.91;;;-0.10;79.27
25869;BME280;13688;53.154;18.136;2023-02-10T08:09:02;102374.30;;;-0.04;79.52
25869;BME280;13688;53.154;18.136;2023-02-10T08:14:27;102379.55;;;-0.01;79.77
25869;BME280;13688;53.154;18.136;2023-02-10T08:19:49;102376.87;;;0.05;80.08
25869;BME280;13688;53.154;18.136;2023-02-10T08:25:12;102356.55;;;0.12;80.40
25869;BME280;13688;53.154;18.136;2023-02-10T08:30:34;102364.41;;;0.21;80.65
25869;BME280;13688;53.154;18.136;2023-02-10T08:35:57;102396.97;;;0.29;80.84
25869;BME280;13688;53.154;18.136;2023-02-10T08:41:23;102379.23;;;0.37;80.97
25869;BME280;13688;53.154;18.136;2023-02-10T08:46:46;102380.90;;;0.47;81.04
25869;BME280;13688;53.154;18.136;2023-02-10T08:52:08;102371.19;;;0.51;80.94
25869;BME280;13688;53.154;18.136;2023-02-10T08:57:31;102394.94;;;0.55;80.79
25869;BME280;13688;53.154;18.136;2023-02-10T09:02:56;102389.55;;;0.68;80.75
25869;BME280;13688;53.154;18.136;2023-02-10T09:08:21;102373.59;;;0.74;80.69
25869;BME280;13688;53.154;18.136;2023-02-10T09:14:00;102371.61;;;0.93;80.04
25869;BME280;13688;53.154;18.136;2023-02-10T09:19:23;102399.92;;;0.86;80.79
25869;BME280;13688;53.154;18.136;2023-02-10T09:25:02;102391.87;;;0.98;81.65
25869;BME280;13688;53.154;18.136;2023-02-10T09:30:25;102392.82;;;0.91;81.08
25869;BME280;13688;53.154;18.136;2023-02-10T09:35:47;102415.76;;;0.92;81.08
25869;BME280;13688;53.154;18.136;2023-02-10T09:47:00;102411.22;;;1.03;81.31
25869;BME280;13688;53.154;18.136;2023-02-10T09:58:32;102419.14;;;1.05;81.33
25869;BME280;13688;53.154;18.136;2023-02-10T10:04:14;102412.06;;;1.05;81.42
25869;BME280;13688;53.154;18.136;2023-02-10T10:09:46;102417.27;;;1.14;81.45
25869;BME280;13688;53.154;18.136;2023-02-10T10:15:25;102409.28;;;1.19;81.42
25869;BME280;13688;53.154;18.136;2023-02-10T10:26:39;102430.50;;;1.18;81.79
25869;BME280;13688;53.154;18.136;2023-02-10T10:32:34;102414.47;;;1.28;82.05
25869;BME280;13688;53.154;18.136;2023-02-10T10:38:00;102405.73;;;1.20;82.04
25869;BME280;13688;53.154;18.136;2023-02-10T10:43:30;102393.27;;;1.28;82.47
25869;BME280;13688;53.154;18.136;2023-02-10T10:49:04;102409.93;;;1.38;82.49
25869;BME280;13688;53.154;18.136;2023-02-10T10:54:28;102430.32;;;1.31;82.41
25869;BME280;13688;53.154;18.136;2023-02-10T10:59:58;102415.34;;;1.29;82.70
25869;BME280;13688;53.154;18.136;2023-02-10T11:05:40;102410.89;;;1.31;82.84
25869;BME280;13688;53.154;18.136;2023-02-10T11:11:17;102427.74;;;1.27;83.02
25869;BME280;13688;53.154;18.136;2023-02-10T11:16:58;102415.34;;;1.29;83.30
25869;BME280;13688;53.154;18.136;2023-02-10T11:22:25;102406.43;;;1.36;83.48
25869;BME280;13688;53.154;18.136;2023-02-10T11:27:50;102418.78;;;1.37;83.56
25869;BME280;13688;53.154;18.136;2023-02-10T11:33:20;102436.45;;;1.35;83.59
25869;BME280;13688;53.154;18.136;2023-02-10T11:38:44;102425.08;;;1.25;83.69
25869;BME280;13688;53.154;18.136;2023-02-10T11:44:20;102424.05;;;1.38;84.00
25869;BME280;13688;53.154;18.136;2023-02-10T11:49:45;102430.27;;;1.34;84.03
25869;BME280;13688;53.154;18.136;2023-02-10T11:55:07;102428.51;;;1.36;84.07
25869;BME280;13688;53.154;18.136;2023-02-10T12:01:06;102424.86;;;1.43;84.14
25869;BME280;13688;53.154;18.136;2023-02-10T12:06:27;102416.91;;;1.43;83.92
25869;BME280;13688;53.154;18.136;2023-02-10T12:11:59;102420.64;;;1.29;83.79
25869;BME280;13688;53.154;18.136;2023-02-10T12:23:23;102427.67;;;1.31;84.04
25869;BME280;13688;53.154;18.136;2023-02-10T12:29:12;102413.38;;;1.43;84.02
25869;BME280;13688;53.154;18.136;2023-02-10T12:52:32;102429.63;;;1.85;82.27
25869;BME280;13688;53.154;18.136;2023-02-10T12:57:59;102429.68;;;1.80;81.98
25869;BME280;13688;53.154;18.136;2023-02-10T13:03:32;102429.63;;;1.85;82.07
25869;BME280;13688;53.154;18.136;2023-02-10T13:09:05;102435.94;;;1.76;82.08
25869;BME280;13688;53.154;18.136;2023-02-10T13:14:32;102438.61;;;1.75;82.39
25869;BME280;13688;53.154;18.136;2023-02-10T13:20:06;102436.01;;;1.70;82.79
25869;BME280;13688;53.154;18.136;2023-02-10T13:25:59;102455.41;;;1.75;82.40
25869;BME280;13688;53.154;18.136;2023-02-10T13:37:45;102447.70;;;1.54;84.78
25869;BME280;13688;53.154;18.136;2023-02-10T13:43:33;102449.61;;;1.42;85.58
25869;BME280;13688;53.154;18.136;2023-02-10T13:48:55;102456.71;;;1.40;86.15
25869;BME280;13688;53.154;18.136;2023-02-10T13:54:35;102451.39;;;1.42;86.48
25869;BME280;13688;53.154;18.136;2023-02-10T14:11:41;102459.34;;;1.42;86.75
25869;BME280;13688;53.154;18.136;2023-02-10T14:22:48;102466.47;;;1.38;86.74
25869;BME280;13688;53.154;18.136;2023-02-10T14:28:19;102469.09;;;1.40;86.90
25869;BME280;13688;53.154;18.136;2023-02-10T14:33:51;102465.54;;;1.41;87.02
25869;BME280;13688;53.154;18.136;2023-02-10T14:39:19;102470.80;;;1.44;87.10
25869;BME280;13688;53.154;18.136;2023-02-10T14:44:50;102473.43;;;1.47;87.20
25869;BME280;13688;53.154;18.136;2023-02-10T14:50:33;102468.13;;;1.47;87.19
25869;BME280;13688;53.154;18.136;2023-02-10T14:55:45;102460.08;;;1.53;87.27
25869;BME280;13688;53.154;18.136;2023-02-10T15:06:44;102451.99;;;1.65;87.17
25869;BME280;13688;53.154;18.136;2023-02-10T15:12:12;102457.27;;;1.67;86.98
25869;BME280;13688;53.154;18.136;2023-02-10T15:17:40;102465.24;;;1.64;86.83
25869;BME280;13688;53.154;18.136;2023-02-10T15:23:12;102468.88;;;1.58;86.91
25869;BME280;13688;53.154;18.136;2023-02-10T15:28:39;102464.55;;;1.50;87.11
25869;BME280;13688;53.154;18.136;2023-02-10T15:34:28;102472.66;;;1.37;87.47
25869;BME280;13688;53.154;18.136;2023-02-10T15:39:35;102462.09;;;1.33;88.03
25869;BME280;13688;53.154;18.136;2023-02-10T15:50:34;102483.27;;;1.34;89.21
25869;BME280;13688;53.154;18.136;2023-02-10T15:55:58;102478.02;;;1.31;89.51
25869;BME280;13688;53.154;18.136;2023-02-10T16:01:21;102496.55;;;1.33;89.80
25869;BME280;13688;53.154;18.136;2023-02-10T16:06:44;102485.91;;;1.37;90.07
25869;BME280;13688;53.154;18.136;2023-02-10T16:12:06;102491.22;;;1.34;90.10
25869;BME280;13688;53.154;18.136;2023-02-10T16:17:37;102487.75;;;1.31;90.17
25869;BME280;13688;53.154;18.136;2023-02-10T16:22:53;102485.16;;;1.26;90.28
25869;BME280;13688;53.154;18.136;2023-02-10T16:28:18;102483.27;;;1.34;90.64
25869;BME280;13688;53.154;18.136;2023-02-10T16:33:40;102477.92;;;1.40;90.79
25869;BME280;13688;53.154;18.136;2023-02-10T16:39:03;102491.13;;;1.43;90.65
25869;BME280;13688;53.154;18.136;2023-02-10T16:44:29;102496.52;;;1.37;90.40
25869;BME280;13688;53.154;18.136;2023-02-10T16:49:54;102498.34;;;1.31;90.25
25869;BME280;13688;53.154;18.136;2023-02-10T16:55:17;102497.53;;;1.26;90.25
25869;BME280;13688;53.154;18.136;2023-02-10T17:00:39;102503.77;;;1.20;90.38
25869;BME280;13688;53.154;18.136;2023-02-10T17:06:04;102478.16;;;1.19;90.63
25869;BME280;13688;53.154;18.136;2023-02-10T17:11:28;102478.19;;;1.18;90.87
25869;BME280;13688;53.154;18.136;2023-02-10T17:16:52;102477.30;;;1.15;91.17
25869;BME280;13688;53.154;18.136;2023-02-10T17:22:14;102481.77;;;1.12;91.39
25869;BME280;13688;53.154;18.136;2023-02-10T17:27:37;102480.05;;;1.08;91.64
25869;BME280;13688;53.154;18.136;2023-02-10T17:32:59;102475.66;;;1.07;92.01
25869;BME280;13688;53.154;18.136;2023-02-10T17:38:22;102476.47;;;1.12;92.46
25869;BME280;13688;53.154;18.136;2023-02-10T17:43:56;102475.59;;;1.11;92.73
25869;BME280;13688;53.154;18.136;2023-02-10T17:49:19;102469.45;;;1.08;92.93
25869;BME280;13688;53.154;18.136;2023-02-10T17:54:43;102473.00;;;1.07;93.10
25869;BME280;13688;53.154;18.136;2023-02-10T18:00:07;102473.84;;;1.10;93.36
25869;BME280;13688;53.154;18.136;2023-02-10T18:05:29;102472.00;;;1.15;93.58
25869;BME280;13688;53.154;18.136;2023-02-10T18:10:57;102465.75;;;1.23;93.71
25869;BME280;13688;53.154;18.136;2023-02-10T18:16:21;102459.53;;;1.27;93.59
25869;BME280;13688;53.154;18.136;2023-02-10T18:21:43;102456.86;;;1.28;93.30
25869;BME280;13688;53.154;18.136;2023-02-10T18:27:05;102448.05;;;1.25;92.96
25869;BME280;13688;53.154;18.136;2023-02-10T18:32:28;102452.48;;;1.24;92.74
25869;BME280;13688;53.154;18.136;2023-02-10T18:37:52;102433.95;;;1.23;92.57
25869;BME280;13688;53.154;18.136;2023-02-10T18:43:21;102440.13;;;1.23;92.48
25869;BME280;13688;53.154;18.136;2023-02-10T18:48:44;102443.63;;;1.25;92.37
25869;BME280;13688;53.154;18.136;2023-02-10T18:54:06;102439.17;;;1.30;92.19
25869;BME280;13688;53.154;18.136;2023-02-10T18:59:30;102426.81;;;1.29;91.87
25869;BME280;13688;53.154;18.136;2023-02-10T19:04:53;102437.42;;;1.29;91.66
25869;BME280;13688;53.154;18.136;2023-02-10T19:10:16;102443.55;;;1.33;91.53
25869;BME280;13688;53.154;18.136;2023-02-10T19:15:39;102423.22;;;1.33;91.48
25869;BME280;13688;53.154;18.136;2023-02-10T19:21:03;102417.86;;;1.39;91.50
25869;BME280;13688;53.154;18.136;2023-02-10T19:26:26;102395.73;;;1.42;91.31
25869;BME280;13688;53.154;18.136;2023-02-10T19:31:49;102400.11;;;1.46;91.07
25869;BME280;13688;53.154;18.136;2023-02-10T19:37:12;102385.08;;;1.47;90.77
25869;BME280;13688;53.154;18.136;2023-02-10T19:42:35;102374.33;;;1.57;90.53
25869;BME280;13688;53.154;18.136;2023-02-10T19:47:57;102376.93;;;1.60;90.06
25869;BME280;13688;53.154;18.136;2023-02-10T19:53:20;102369.82;;;1.62;89.60
25869;BME280;13688;53.154;18.136;2023-02-10T19:58:43;102368.05;;;1.63;89.26
25869;BME280;13688;53.154;18.136;2023-02-10T20:04:08;102373.41;;;1.60;88.99
25869;BME280;13688;53.154;18.136;2023-02-10T20:09:31;102380.55;;;1.53;88.86
25869;BME280;13688;53.154;18.136;2023-02-10T20:14:54;102377.03;;;1.53;88.96
25869;BME280;13688;53.154;18.136;2023-02-10T20:20:17;102356.67;;;1.56;89.11
25869;BME280;13688;53.154;18.136;2023-02-10T20:25:39;102372.55;;;1.58;89.05
25869;BME280;13688;53.154;18.136;2023-02-10T20:31:02;102361.89;;;1.61;88.94
25869;BME280;13688;53.154;18.136;2023-02-10T20:36:25;102344.21;;;1.61;88.78
25869;BME280;13688;53.154;18.136;2023-02-10T20:41:48;102332.67;;;1.64;88.56
25869;BME280;13688;53.154;18.136;2023-02-10T20:47:21;102321.00;;;1.77;88.55
25869;BME280;13688;53.154;18.136;2023-02-10T20:52:43;102315.84;;;1.68;87.97
25869;BME280;13688;53.154;18.136;2023-02-10T20:58:06;102319.34;;;1.70;87.65
25869;BME280;13688;53.154;18.136;2023-02-10T21:03:29;102313.98;;;1.75;87.27
25869;BME280;13688;53.154;18.136;2023-02-10T21:08:54;102305.13;;;1.76;86.78
25869;BME280;13688;53.154;18.136;2023-02-10T21:14:17;102300.66;;;1.78;86.40
25869;BME280;13688;53.154;18.136;2023-02-10T21:19:41;102288.25;;;1.80;85.97
25869;BME280;13688;53.154;18.136;2023-02-10T21:25:04;102282.07;;;1.79;85.60
25869;BME280;13688;53.154;18.136;2023-02-10T21:30:27;102290.00;;;1.81;85.39
25869;BME280;13688;53.154;18.136;2023-02-10T21:35:51;102249.34;;;1.80;85.10
25869;BME280;13688;53.154;18.136;2023-02-10T21:41:14;102250.31;;;1.76;84.90
25869;BME280;13688;53.154;18.136;2023-02-10T21:47:07;102252.81;;;1.85;85.77
25869;BME280;13688;53.154;18.136;2023-02-10T21:52:30;102250.34;;;1.75;84.84
25869;BME280;13688;53.154;18.136;2023-02-10T21:57:52;102245.97;;;1.70;84.71
25869;BME280;13688;53.154;18.136;2023-02-10T22:03:15;102248.53;;;1.77;84.62
25869;BME280;13688;53.154;18.136;2023-02-10T22:08:40;102235.24;;;1.78;84.26
25869;BME280;13688;53.154;18.136;2023-02-10T22:14:03;102195.50;;;1.77;83.86
25869;BME280;13688;53.154;18.136;2023-02-10T22:19:29;102224.57;;;1.81;83.67
25869;BME280;13688;53.154;18.136;2023-02-10T22:24:51;102221.02;;;1.82;83.40
25869;BME280;13688;53.154;18.136;2023-02-10T22:30:14;102193.66;;;1.80;83.15
25869;BME280;13688;53.154;18.136;2023-02-10T22:35:38;102186.63;;;1.78;83.17
25869;BME280;13688;53.154;18.136;2023-02-10T22:41:12;102178.58;;;1.82;83.21
25869;BME280;13688;53.154;18.136;2023-02-10T22:46:35;102157.40;;;1.81;83.06
25869;BME280;13688;53.154;18.136;2023-02-10T22:51:57;102151.25;;;1.79;83.08
25869;BME280;13688;53.154;18.136;2023-02-10T22:57:20;102129.91;;;1.86;83.08
25869;BME280;13688;53.154;18.136;2023-02-10T23:02:42;102113.16;;;1.84;82.98
25869;BME280;13688;53.154;18.136;2023-02-10T23:08:05;102103.45;;;1.82;83.06
25869;BME280;13688;53.154;18.136;2023-02-10T23:13:28;102092.88;;;1.80;83.12
25869;BME280;13688;53.154;18.136;2023-02-10T23:18:51;102090.19;;;1.82;83.17
25869;BME280;13688;53.154;18.136;2023-02-10T23:24:13;102084.05;;;1.80;83.24
25869;BME280;13688;53.154;18.136;2023-02-10T23:29:36;102075.33;;;1.73;83.28
25869;BME280;13688;53.154;18.136;2023-02-10T23:34:58;102051.47;;;1.75;83.47
25869;BME280;13688;53.154;18.136;2023-02-10T23:40:21;102020.70;;;1.66;83.54
25869;BME280;13688;53.154;18.136;2023-02-10T23:45:43;102021.58;;;1.66;83.71
25869;BME280;13688;53.154;18.136;2023-02-10T23:51:19;102024.27;;;1.65;83.78
25869;BME280;13688;53.154;18.136;2023-02-10T23:56:38;102034.07;;;1.60;83.80
